Skip Navigation LinksHome page > Weather > Current weather Skip Navigation Links

Current Weather

Central Park, New York

For information only: do not use for flight planning or navigation.
Latest weather
Observation time Wednesday, January 18, 2017 7:51 AM EST
Local time Wednesday, January 18, 2017 9:00 AM EST
Flight conditions Instrument Meteorological Conditions
Winds
Wind direction East-Northeast (60°)
Wind speed 6 mph
Visibility 6 mi.
Present weather mist
Sky condition
Ceiling 600 ft. overcast
Cloud layer overcast 600 ft.
Temperature 40°F
Dewpoint 39°F
Altimeter 29.94 in.Hg
Derived measurements
Relative humidity 97%
Wind chill 36°F
Density altitude -1029 ft.
Sea-level pressure 29.91 in.Hg
Remarks
Fully automated report.
Automated weather observing station with precipitation discriminator.
METAR KNYC 181251Z AUTO 06005KT 6SM BR OVC006 04/04 A2994 RMK AO2 SLP130 T00440039

Settings

Location code

InnerDrive.Weather 4.0.6144.1 Release CLR 4.0.30319.34209
Copyright ©2015 Inner Drive Technology. All rights reserved. Portions Copyright ©1986-2015 David Braverman.

Find weather

Site navigation


Skip Navigation Links

Place info

Page info

PayPal - The safer, easier way to pay online!

Return home.

Copyright ©2017 Inner Drive Technology. Purveyors of fine, hand-crafted computer software. Page printed 2017-01-18T14:00:01 UTC.